Time;durP1;ratioP1;P1;durP2;ratioP2;P2;SDS_P1;SDS_P2;PMS_P1;PMS_P2;Temp;Humidity;BMP_temperature;BMP_pressure;BME280_temperature;BME280_humidity;BME280_pressure;Samples;Min_cycle;Max_cycle;Signal;HPM_P1;HPM_P2
2021/03/11 00:02:05;;;;;;;12.30;9.50;;;;;;;6.98;52.07;96338.06;5025134;28;20255;-67
2021/03/11 00:04:31;;;;;;;12.57;8.83;;;;;;;7.01;52.24;96329.03;5014775;28;20171;-68
2021/03/11 00:06:56;;;;;;;12.10;9.27;;;;;;;6.98;52.11;96330.25;5014018;28;20605;-67
2021/03/11 00:09:22;;;;;;;12.53;9.27;;;;;;;7.01;52.01;96319.41;5014160;28;20211;-67
2021/03/11 00:11:47;;;;;;;11.33;9.23;;;;;;;7.05;51.78;96319.75;5031450;28;20547;-70
2021/03/11 00:14:13;;;;;;;10.33;9.07;;;;;;;7.08;51.87;96330.53;5014525;28;20646;-68
2021/03/11 00:16:38;;;;;;;13.13;9.27;;;;;;;7.05;51.80;96319.75;5027591;28;20523;-67
2021/03/11 00:19:04;;;;;;;10.23;8.83;;;;;;;7.07;51.49;96315.13;5028032;28;20199;-68
2021/03/11 00:21:30;;;;;;;12.47;8.47;;;;;;;6.99;51.87;96318.00;5028995;28;20170;-67
2021/03/11 00:23:58;;;;;;;12.67;8.77;;;;;;;7.07;51.88;96322.97;5019282;28;20229;-69
2021/03/11 00:26:23;;;;;;;11.43;9.20;;;;;;;7.10;51.98;96322.50;5052019;28;20609;-68
2021/03/11 00:28:49;;;;;;;11.60;9.53;;;;;;;7.09;51.90;96324.31;5035761;28;20231;-67
2021/03/11 00:31:14;;;;;;;11.50;9.50;;;;;;;7.05;51.70;96317.16;5050984;28;20277;-67
2021/03/11 00:33:40;;;;;;;11.17;9.03;;;;;;;7.16;52.07;96324.25;5022646;28;20175;-67
2021/03/11 00:36:06;;;;;;;12.33;9.23;;;;;;;7.18;51.92;96311.81;5044918;28;20170;-67
2021/03/11 00:38:31;;;;;;;12.23;8.87;;;;;;;7.17;51.80;96318.03;5019198;28;20256;-67
2021/03/11 00:40:57;;;;;;;12.13;9.13;;;;;;;7.04;52.29;96321.56;5033157;28;20178;-68
2021/03/11 00:43:22;;;;;;;12.63;9.50;;;;;;;7.15;52.20;96322.66;5038022;28;20178;-69
2021/03/11 00:45:49;;;;;;;11.83;8.90;;;;;;;7.19;51.90;96326.41;5021259;28;20270;-70
2021/03/11 00:48:16;;;;;;;12.60;9.17;;;;;;;7.20;52.12;96317.59;5013695;28;20240;-67
2021/03/11 00:50:41;;;;;;;10.80;8.97;;;;;;;7.15;52.24;96316.66;5012684;28;20180;-67
2021/03/11 00:53:06;;;;;;;13.13;9.40;;;;;;;7.26;52.22;96308.09;5034213;28;20174;-67
2021/03/11 00:55:32;;;;;;;10.63;8.33;;;;;;;7.14;52.38;96309.84;5022516;28;20229;-73
2021/03/11 00:57:58;;;;;;;12.20;8.77;;;;;;;7.32;52.22;96313.25;5021225;28;20254;-67
2021/03/11 01:00:23;;;;;;;11.63;8.90;;;;;;;7.35;52.09;96314.66;5012820;28;20237;-67
2021/03/11 01:02:49;;;;;;;10.87;9.00;;;;;;;7.33;52.41;96312.25;5022308;28;20220;-67
2021/03/11 01:05:23;;;;;;;11.07;8.70;;;;;;;7.27;52.24;96309.72;5029508;28;20182;-67
2021/03/11 01:07:48;;;;;;;10.43;8.60;;;;;;;7.28;52.72;96312.09;5043877;28;20567;-67
2021/03/11 01:10:14;;;;;;;12.73;9.20;;;;;;;7.31;52.53;96313.47;5048184;28;20202;-67
2021/03/11 01:12:40;;;;;;;11.37;8.10;;;;;;;7.36;52.36;96318.81;5031901;28;20199;-67
2021/03/11 01:15:06;;;;;;;12.17;8.77;;;;;;;7.37;52.46;96315.19;5038097;28;20236;-67
2021/03/11 01:17:32;;;;;;;12.03;9.07;;;;;;;7.32;52.95;96315.06;5001861;28;20171;-67
2021/03/11 01:19:59;;;;;;;13.00;10.00;;;;;;;7.36;53.14;96309.19;5044713;28;20204;-67
2021/03/11 01:22:24;;;;;;;11.67;8.97;;;;;;;7.28;54.18;96308.69;5026313;28;20174;-67
2021/03/11 01:24:50;;;;;;;12.73;8.90;;;;;;;7.33;54.28;96301.03;5030593;28;20626;-66
2021/03/11 01:27:15;;;;;;;9.43;8.20;;;;;;;7.29;54.54;96289.44;5039202;28;20169;-66
2021/03/11 01:29:41;;;;;;;11.07;8.07;;;;;;;7.27;54.87;96281.84;5021710;28;20256;-66
2021/03/11 01:32:06;;;;;;;11.13;8.40;;;;;;;7.26;54.82;96269.81;5051869;28;20190;-66
2021/03/11 01:34:33;;;;;;;10.40;7.97;;;;;;;7.30;54.95;96267.59;5053188;28;20241;-66
2021/03/11 01:36:58;;;;;;;9.00;7.20;;;;;;;7.29;55.71;96258.97;5032286;28;20206;-65
2021/03/11 01:39:24;;;;;;;10.67;8.27;;;;;;;7.34;55.69;96245.28;5045184;28;20201;-66
2021/03/11 01:41:50;;;;;;;7.00;6.30;;;;;;;7.37;55.95;96239.59;5020101;28;20242;-66
2021/03/11 01:44:15;;;;;;;10.03;6.97;;;;;;;7.38;56.31;96228.97;5014990;28;20251;-67
2021/03/11 01:46:41;;;;;;;19.03;7.10;;;;;;;7.36;56.54;96222.38;5033074;28;20178;-67
2021/03/11 01:49:06;;;;;;;6.90;5.63;;;;;;;7.34;57.13;96211.38;5031330;28;20284;-66
2021/03/11 01:51:33;;;;;;;6.67;5.70;;;;;;;7.36;57.08;96201.50;5044046;28;20202;-65
2021/03/11 01:53:59;;;;;;;6.63;5.77;;;;;;;7.43;56.75;96190.00;5020748;28;20238;-65
2021/03/11 01:56:25;;;;;;;7.00;6.00;;;;;;;7.40;57.27;96187.03;5044195;28;20262;-66
2021/03/11 01:58:52;;;;;;;8.43;5.40;;;;;;;7.39;57.50;96182.84;5027769;28;20329;-67
2021/03/11 02:01:17;;;;;;;8.20;6.13;;;;;;;7.47;57.19;96180.69;5044424;28;20182;-67
2021/03/11 02:03:43;;;;;;;7.03;5.87;;;;;;;7.45;57.29;96180.16;5023674;28;20225;-67
2021/03/11 02:06:10;;;;;;;6.27;5.67;;;;;;;7.40;57.67;96177.41;5032693;28;20188;-68
2021/03/11 02:08:36;;;;;;;6.43;5.60;;;;;;;7.50;57.49;96174.25;5018764;28;20689;-67
2021/03/11 02:11:02;;;;;;;6.87;5.93;;;;;;;7.34;58.09;96167.06;5015880;28;20254;-67
2021/03/11 02:14:08;;;;;;;6.80;6.10;;;;;;;7.52;57.45;96149.53;5042664;28;20284;-69
2021/03/11 02:16:54;;;;;;;8.10;6.07;;;;;;;7.50;57.38;96135.16;5005444;28;20281;-67
2021/03/11 02:19:41;;;;;;;7.73;6.80;;;;;;;7.49;57.55;96131.75;5030273;28;20576;-68
2021/03/11 02:22:10;;;;;;;7.97;6.87;;;;;;;7.52;57.27;96123.47;5049705;28;20177;-69
2021/03/11 02:25:04;;;;;;;9.87;7.53;;;;;;;7.40;57.99;96116.66;5043861;28;20265;-67
2021/03/11 02:27:50;;;;;;;7.33;6.57;;;;;;;7.45;57.71;96116.78;5030736;28;20616;-67
2021/03/11 02:30:16;;;;;;;10.67;7.17;;;;;;;7.32;58.28;96102.13;5009239;28;20191;-67
2021/03/11 02:32:43;;;;;;;8.73;7.03;;;;;;;7.30;57.89;96098.94;5036461;28;20572;-70
2021/03/11 02:35:12;;;;;;;9.47;7.27;;;;;;;7.43;57.59;96085.72;5024617;28;20171;-67
2021/03/11 02:37:42;;;;;;;9.63;6.90;;;;;;;7.39;57.79;96075.97;5041364;28;20227;-67
2021/03/11 02:40:09;;;;;;;8.50;7.07;;;;;;;7.45;57.42;96072.47;5026296;28;20208;-67
2021/03/11 02:42:37;;;;;;;11.30;6.97;;;;;;;7.42;57.38;96060.66;5055281;28;20540;-67
2021/03/11 02:45:08;;;;;;;8.63;7.33;;;;;;;7.45;57.02;96056.81;5028542;28;20316;-68
2021/03/11 02:47:36;;;;;;;7.90;7.10;;;;;;;7.27;57.57;96067.31;5048648;28;20178;-67
2021/03/11 02:50:03;;;;;;;10.20;7.20;;;;;;;7.30;57.54;96057.22;5045882;28;20199;-67
2021/03/11 02:52:30;;;;;;;10.13;7.47;;;;;;;7.29;57.26;96050.44;5015477;28;20250;-67
2021/03/11 02:54:58;;;;;;;8.67;7.40;;;;;;;7.35;57.06;96059.97;5021270;28;20174;-74
2021/03/11 02:57:25;;;;;;;10.10;7.17;;;;;;;7.27;57.36;96062.09;5025373;28;20235;-67
2021/03/11 02:59:51;;;;;;;8.50;7.57;;;;;;;7.43;56.85;96049.22;5052591;28;20217;-68
2021/03/11 03:02:17;;;;;;;10.60;7.67;;;;;;;7.46;56.76;96042.75;5052541;28;20162;-68
2021/03/11 03:04:50;;;;;;;9.23;7.80;;;;;;;7.39;57.14;96040.25;5053174;28;20192;-68
2021/03/11 03:07:17;;;;;;;10.57;8.53;;;;;;;7.30;57.09;96028.56;5027494;28;20203;-67
2021/03/11 03:09:47;;;;;;;10.47;8.60;;;;;;;7.28;56.95;96019.38;5047041;28;20297;-68
2021/03/11 03:12:14;;;;;;;10.63;8.70;;;;;;;7.23;56.90;96011.44;5014423;28;20227;-68
2021/03/11 03:14:44;;;;;;;9.83;8.50;;;;;;;7.25;56.71;96015.41;5033995;28;20221;-67
2021/03/11 03:17:12;;;;;;;9.93;8.20;;;;;;;7.24;56.58;96008.63;5025291;28;20179;-68
2021/03/11 03:19:38;;;;;;;10.17;8.13;;;;;;;7.25;56.66;95988.53;5047107;28;20236;-68
2021/03/11 03:22:05;;;;;;;10.50;8.63;;;;;;;7.32;56.47;95994.44;5017144;28;20175;-68
2021/03/11 03:24:31;;;;;;;12.30;8.30;;;;;;;7.32;56.29;95999.66;5038246;28;20191;-68
2021/03/11 03:26:56;;;;;;;11.97;7.90;;;;;;;7.37;56.16;95992.75;5013852;28;20183;-68
2021/03/11 03:29:22;;;;;;;10.20;8.20;;;;;;;7.20;56.39;95975.41;5036275;28;20246;-67
2021/03/11 03:31:47;;;;;;;9.63;7.77;;;;;;;7.34;57.12;95976.78;5014462;28;20199;-67
2021/03/11 03:34:13;;;;;;;8.93;7.70;;;;;;;7.21;58.78;95982.19;5013613;28;20164;-68
2021/03/11 03:36:38;;;;;;;8.50;7.43;;;;;;;7.21;59.65;95977.00;5014520;28;20167;-68
2021/03/11 03:39:04;;;;;;;9.27;7.97;;;;;;;7.19;60.28;95979.81;5044701;28;20203;-68
2021/03/11 03:41:31;;;;;;;9.17;7.17;;;;;;;7.18;60.35;95977.44;5025137;28;20173;-69
2021/03/11 03:43:57;;;;;;;7.50;6.70;;;;;;;7.28;59.23;95983.69;5012541;28;20267;-69
2021/03/11 03:46:25;;;;;;;8.77;7.10;;;;;;;7.31;58.58;95966.78;5038462;28;20236;-67
2021/03/11 03:48:53;;;;;;;8.13;6.73;;;;;;;7.50;58.07;95973.50;5020728;28;20206;-67
2021/03/11 03:51:25;;;;;;;7.53;6.23;;;;;;;7.47;57.19;95963.50;5016358;28;20199;-67
2021/03/11 03:54:08;;;;;;;7.57;6.07;;;;;;;7.37;57.65;95963.28;5024383;28;20270;-71
2021/03/11 03:56:48;;;;;;;9.73;6.37;;;;;;;7.40;57.15;95966.25;5015787;28;20183;-67
2021/03/11 03:59:20;;;;;;;8.37;6.70;;;;;;;7.44;57.09;95959.56;5028223;28;20252;-67
2021/03/11 04:01:49;;;;;;;6.70;5.87;;;;;;;7.45;57.21;95961.16;5027047;28;20170;-67
2021/03/11 04:04:15;;;;;;;6.47;5.67;;;;;;;7.50;57.56;95969.09;5032390;28;20172;-68
2021/03/11 04:06:42;;;;;;;6.03;5.07;;;;;;;7.56;57.96;95961.38;5037759;28;20267;-68
2021/03/11 04:09:12;;;;;;;5.70;5.20;;;;;;;7.65;58.08;95960.00;5051265;28;20301;-65
2021/03/11 04:11:41;;;;;;;5.47;4.60;;;;;;;7.67;58.19;95969.19;5020398;28;20193;-67
2021/03/11 04:14:08;;;;;;;6.40;4.67;;;;;;;7.70;58.32;95973.13;5049853;28;20636;-68
2021/03/11 04:16:35;;;;;;;6.83;4.83;;;;;;;7.75;58.41;95974.03;5030723;28;20661;-68
2021/03/11 04:19:02;;;;;;;5.13;4.70;;;;;;;7.85;58.48;95968.28;5040846;28;20214;-74
2021/03/11 04:21:30;;;;;;;7.17;4.60;;;;;;;7.98;58.50;95969.81;5048983;28;20169;-67
2021/03/11 04:23:57;;;;;;;4.60;4.20;;;;;;;8.02;58.72;95963.94;5022623;28;20166;-68
2021/03/11 04:26:22;;;;;;;4.40;4.07;;;;;;;7.96;59.29;95954.41;5035190;28;20537;-67
2021/03/11 04:28:48;;;;;;;6.03;4.33;;;;;;;8.05;59.46;95953.00;5013150;28;20203;-69
2021/03/11 04:31:15;;;;;;;5.07;4.57;;;;;;;8.09;60.27;95959.34;4999767;28;20203;-68
2021/03/11 04:33:42;;;;;;;4.80;4.40;;;;;;;8.13;61.08;95957.09;5043764;28;20166;-68
2021/03/11 04:36:09;;;;;;;9.73;4.40;;;;;;;8.21;61.85;95948.88;5023668;28;20659;-68
2021/03/11 04:38:35;;;;;;;4.63;4.23;;;;;;;8.24;62.55;95953.66;5035389;28;20579;-68
2021/03/11 04:41:01;;;;;;;4.60;4.20;;;;;;;8.21;63.04;95954.91;5026596;28;20518;-75
2021/03/11 04:43:27;;;;;;;4.83;4.43;;;;;;;8.26;63.26;95952.38;5019884;28;20222;-71
2021/03/11 04:45:54;;;;;;;6.03;4.37;;;;;;;8.28;63.71;95939.09;5024353;28;20634;-68
2021/03/11 04:48:21;;;;;;;4.33;4.03;;;;;;;8.29;63.88;95944.09;5012495;28;20180;-67
2021/03/11 04:50:47;;;;;;;7.67;4.00;;;;;;;8.29;63.89;95948.53;5015104;28;20598;-68
2021/03/11 04:53:13;;;;;;;6.77;4.63;;;;;;;8.33;63.92;95954.91;5029671;28;20254;-67
2021/03/11 04:55:42;;;;;;;5.97;4.87;;;;;;;8.29;64.47;95953.75;5028507;28;20187;-68
2021/03/11 04:58:07;;;;;;;4.37;3.97;;;;;;;8.32;64.30;95959.31;5018448;28;20316;-68
2021/03/11 05:00:34;;;;;;;4.77;4.37;;;;;;;8.37;63.83;95942.94;5051153;28;20205;-68
2021/03/11 05:03:00;;;;;;;4.30;4.00;;;;;;;8.32;64.63;95942.88;5038680;28;20202;-66
2021/03/11 05:05:37;;;;;;;4.43;3.80;;;;;;;8.37;64.48;95944.78;5031937;28;20228;-65
2021/03/11 05:08:04;;;;;;;4.77;3.80;;;;;;;8.38;64.32;95941.13;5020622;28;20183;-63
2021/03/11 05:10:30;;;;;;;4.50;4.03;;;;;;;8.43;64.68;95938.63;5048072;28;20271;-65
2021/03/11 05:12:55;;;;;;;4.57;4.07;;;;;;;8.43;64.85;95928.16;5014986;28;20614;-65
2021/03/11 05:15:21;;;;;;;4.73;4.27;;;;;;;8.40;64.78;95939.09;4994274;28;20242;-65
2021/03/11 05:17:46;;;;;;;6.77;4.37;;;;;;;8.42;64.69;95945.66;5025856;28;20167;-65
2021/03/11 05:20:13;;;;;;;4.60;4.00;;;;;;;8.43;64.97;95942.03;5025074;28;20843;-65
2021/03/11 05:22:38;;;;;;;5.07;4.20;;;;;;;8.49;65.02;95937.69;5027534;28;20250;-66
2021/03/11 05:25:09;;;;;;;5.03;4.00;;;;;;;8.45;65.13;95937.38;5038987;28;20265;-65
2021/03/11 05:27:36;;;;;;;4.63;4.23;;;;;;;8.47;65.14;95945.75;5047268;28;20671;-66
2021/03/11 05:30:04;;;;;;;4.90;4.40;;;;;;;8.43;65.40;95949.06;5040376;28;20657;-65
2021/03/11 05:32:29;;;;;;;4.87;4.10;;;;;;;8.40;65.35;95946.94;5029186;28;20691;-66
2021/03/11 05:34:55;;;;;;;4.97;4.43;;;;;;;8.43;65.41;95947.25;5050161;28;20178;-66
2021/03/11 05:37:20;;;;;;;4.30;4.00;;;;;;;8.47;65.50;95939.75;5047050;28;20212;-66
2021/03/11 05:39:47;;;;;;;4.77;4.37;;;;;;;8.39;65.60;95938.31;5000160;28;20578;-66
2021/03/11 05:42:16;;;;;;;4.40;4.00;;;;;;;8.40;65.77;95945.13;5047401;28;20254;-66
2021/03/11 05:44:43;;;;;;;4.57;4.17;;;;;;;8.40;65.92;95941.72;5006563;28;20210;-65
2021/03/11 05:47:12;;;;;;;5.43;4.40;;;;;;;8.39;66.03;95945.34;5019156;28;20222;-66
2021/03/11 05:49:41;;;;;;;4.93;4.33;;;;;;;8.36;66.42;95940.59;5044130;28;20217;-67
2021/03/11 05:52:11;;;;;;;6.20;4.77;;;;;;;8.35;66.40;95924.13;5020584;28;20214;-66
2021/03/11 05:54:37;;;;;;;4.80;4.40;;;;;;;8.32;66.88;95928.00;5038858;28;20190;-66
2021/03/11 05:59:29;;;;;;;4.40;4.00;;;;;;;8.33;66.94;95931.41;5018940;28;20655;-66
2021/03/11 06:01:56;;;;;;;5.37;4.47;;;;;;;8.36;67.27;95938.00;5022431;28;20663;-66
2021/03/11 06:04:22;;;;;;;4.43;4.13;;;;;;;8.35;67.27;95931.97;5028641;28;20199;-65
2021/03/11 06:06:49;;;;;;;4.30;4.00;;;;;;;8.45;66.81;95934.75;5030691;28;20217;-65
2021/03/11 06:09:18;;;;;;;4.73;3.97;;;;;;;8.44;66.80;95935.78;5021472;28;20203;-65
2021/03/11 06:11:44;;;;;;;4.97;4.17;;;;;;;8.42;67.27;95929.19;5009719;28;20242;-65
2021/03/11 06:14:15;;;;;;;4.80;4.27;;;;;;;8.48;67.19;95916.00;5010488;28;20254;-68
2021/03/11 06:17:05;;;;;;;4.80;4.13;;;;;;;8.48;67.12;95912.59;5011071;28;20184;-68
2021/03/11 06:19:32;;;;;;;5.33;3.70;;;;;;;8.87;78.07;95903.84;5017688;28;20680;-61
2021/03/11 06:21:57;;;;;;;4.30;3.90;;;;;;;9.46;72.32;95899.78;5023641;28;20282;-62
2021/03/11 06:24:23;;;;;;;4.70;4.30;;;;;;;9.89;65.50;95885.94;5020983;28;20786;-66
2021/03/11 06:26:49;;;;;;;4.07;3.77;;;;;;;9.29;64.24;95883.34;5031057;28;20179;-66
2021/03/11 06:29:16;;;;;;;4.30;3.90;;;;;;;9.06;65.20;95871.25;5031606;28;20309;-65
2021/03/11 06:31:42;;;;;;;5.90;4.10;;;;;;;8.96;65.69;95871.09;5026679;28;20202;-65
2021/03/11 06:34:22;;;;;;;4.23;3.93;;;;;;;8.84;65.76;95869.59;5033106;28;20175;-65
2021/03/11 06:36:48;;;;;;;3.97;3.57;;;;;;;8.81;66.18;95876.06;5031477;28;20174;-64
2021/03/11 06:39:25;;;;;;;4.50;4.10;;;;;;;8.86;65.83;95872.75;5029075;28;20213;-66
2021/03/11 06:41:50;;;;;;;4.37;4.07;;;;;;;8.79;65.92;95879.97;5033477;28;20229;-65
2021/03/11 06:44:16;;;;;;;4.03;3.63;;;;;;;8.78;65.38;95873.94;5032581;28;20579;-65
2021/03/11 06:47:06;;;;;;;4.00;3.70;;;;;;;8.77;65.57;95888.81;5029851;28;20182;-66
2021/03/11 06:49:32;;;;;;;4.10;3.80;;;;;;;8.84;65.61;95893.91;5002572;28;20218;-66
2021/03/11 06:52:15;;;;;;;5.60;3.70;;;;;;;8.88;64.88;95881.94;5029385;28;20234;-66
2021/03/11 06:54:53;;;;;;;6.07;4.63;;;;;;;8.96;64.90;95893.81;5014400;28;20188;-65
2021/03/11 06:57:33;;;;;;;4.03;3.63;;;;;;;8.94;64.93;95877.56;5020426;28;20283;-66
2021/03/11 07:00:01;;;;;;;3.90;3.60;;;;;;;8.91;65.10;95867.59;5010575;28;20245;-67
2021/03/11 07:02:28;;;;;;;4.07;3.77;;;;;;;8.97;64.94;95867.44;5043458;28;20179;-65
2021/03/11 07:04:56;;;;;;;6.80;3.87;;;;;;;9.03;64.49;95879.53;5019853;28;20184;-65
2021/03/11 07:07:23;;;;;;;3.83;3.50;;;;;;;9.06;64.65;95875.66;5018380;28;20697;-65
2021/03/11 07:09:53;;;;;;;4.50;3.77;;;;;;;9.11;64.48;95873.91;5031207;28;20217;-65
2021/03/11 07:12:18;;;;;;;3.83;3.40;;;;;;;9.12;64.45;95885.97;5011471;28;20622;-68
2021/03/11 07:14:47;;;;;;;10.87;3.80;;;;;;;9.15;64.57;95879.47;5000189;28;20226;-67
2021/03/11 07:17:22;;;;;;;4.33;4.03;;;;;;;9.22;64.12;95885.31;5046376;28;20746;-65
2021/03/11 07:20:25;;;;;;;4.13;3.70;;;;;;;9.26;64.19;95885.63;5032159;28;20259;-66
2021/03/11 07:23:00;;;;;;;4.20;3.60;;;;;;;9.29;64.41;95891.19;5022277;28;20183;-66
2021/03/11 07:25:27;;;;;;;3.60;3.33;;;;;;;9.30;64.25;95890.16;5036319;28;20698;-65
2021/03/11 07:27:53;;;;;;;3.60;3.30;;;;;;;9.40;64.03;95881.66;5038072;28;20222;-64
2021/03/11 07:30:19;;;;;;;3.43;3.13;;;;;;;9.40;64.19;95887.66;5034523;28;20210;-66
2021/03/11 07:32:46;;;;;;;3.80;3.40;;;;;;;9.43;64.34;95883.78;5025110;28;20198;-67
2021/03/11 07:35:17;;;;;;;4.13;3.83;;;;;;;9.50;64.04;95876.53;5044209;28;20182;-66
2021/03/11 07:37:46;;;;;;;3.47;3.27;;;;;;;9.53;64.28;95887.31;5036774;28;20178;-66
2021/03/11 07:40:13;;;;;;;7.40;4.40;;;;;;;9.60;63.96;95868.81;5027779;28;20211;-66
2021/03/11 07:42:41;;;;;;;4.87;3.70;;;;;;;9.66;63.57;95882.75;5036803;28;20170;-67
2021/03/11 07:45:13;;;;;;;7.10;3.23;;;;;;;9.69;63.99;95875.25;5047855;28;20583;-66
2021/03/11 07:47:41;;;;;;;3.77;3.47;;;;;;;9.83;63.70;95883.50;5025549;28;20219;-65
2021/03/11 07:50:10;;;;;;;4.90;3.00;;;;;;;9.83;63.68;95889.53;5035189;28;20481;-66
2021/03/11 07:52:35;;;;;;;3.50;3.20;;;;;;;9.82;63.45;95874.84;5042520;28;20210;-66
2021/03/11 07:55:04;;;;;;;3.50;3.20;;;;;;;9.89;63.32;95880.72;5029120;28;20632;-66
2021/03/11 07:57:33;;;;;;;5.10;2.97;;;;;;;9.96;63.33;95876.09;5036556;28;20241;-66
2021/03/11 07:59:59;;;;;;;3.33;3.03;;;;;;;10.04;62.93;95882.69;5020379;28;20294;-66
2021/03/11 08:02:25;;;;;;;3.57;3.27;;;;;;;10.09;62.87;95876.72;5040144;28;20577;-66
2021/03/11 08:04:51;;;;;;;3.13;2.93;;;;;;;10.17;62.71;95871.88;5035138;28;20226;-64
2021/03/11 08:07:22;;;;;;;5.10;3.33;;;;;;;10.21;62.26;95877.41;5034007;28;20546;-66
2021/03/11 08:09:50;;;;;;;3.50;3.17;;;;;;;10.23;62.33;95875.34;5023494;28;20215;-66
2021/03/11 08:12:28;;;;;;;3.40;3.13;;;;;;;10.32;62.32;95864.19;5045781;28;20193;-65
2021/03/11 08:14:55;;;;;;;3.40;3.20;;;;;;;10.41;62.23;95872.38;5028187;28;20266;-65
2021/03/11 08:17:41;;;;;;;3.40;3.20;;;;;;;10.49;61.73;95871.13;5037146;28;20673;-65
2021/03/11 08:20:19;;;;;;;3.63;3.10;;;;;;;10.57;61.28;95871.50;5037546;28;20205;-64
2021/03/11 08:22:51;;;;;;;3.53;3.27;;;;;;;10.67;60.99;95853.22;5013368;28;20203;-66
2021/03/11 08:25:32;;;;;;;3.73;3.10;;;;;;;10.72;60.80;95855.91;5035755;28;20180;-65
2021/03/11 08:27:58;;;;;;;3.23;3.03;;;;;;;10.79;61.02;95853.84;5044851;28;20189;-65
2021/03/11 08:30:38;;;;;;;3.27;3.00;;;;;;;10.89;60.77;95861.00;5018947;28;20240;-65
2021/03/11 08:33:24;;;;;;;3.33;2.90;;;;;;;10.95;60.69;95856.59;5031442;28;20198;-65
2021/03/11 08:35:51;;;;;;;4.63;3.40;;;;;;;11.01;60.40;95858.22;5043710;28;20196;-65
2021/03/11 08:38:19;;;;;;;3.03;2.80;;;;;;;10.96;60.63;95842.44;5045802;28;20204;-65
2021/03/11 08:40:46;;;;;;;3.20;2.90;;;;;;;11.14;60.14;95845.47;5040836;28;20179;-65
2021/03/11 08:43:37;;;;;;;3.10;2.90;;;;;;;11.19;60.01;95837.63;5051069;28;20162;-65
2021/03/11 08:46:14;;;;;;;3.67;3.20;;;;;;;11.34;59.27;95831.66;5018526;28;20187;-65
2021/03/11 08:48:47;;;;;;;2.80;2.60;;;;;;;11.34;59.47;95821.16;5045313;28;20202;-65
2021/03/11 08:51:33;;;;;;;3.47;3.17;;;;;;;11.49;59.00;95817.81;5028437;28;20206;-65
2021/03/11 08:54:20;;;;;;;3.53;2.70;;;;;;;11.59;58.21;95799.53;5009115;28;20216;-67
2021/03/11 08:56:46;;;;;;;2.93;2.73;;;;;;;11.57;58.45;95810.25;5029969;28;20574;-66
2021/03/11 08:59:16;;;;;;;2.87;2.67;;;;;;;11.63;58.54;95793.50;5012649;28;20284;-66
2021/03/11 09:01:54;;;;;;;3.20;2.97;;;;;;;11.71;58.77;95797.44;5044642;28;20245;-65
2021/03/11 09:04:20;;;;;;;2.57;2.33;;;;;;;11.76;58.19;95792.22;5025634;28;20177;-66
2021/03/11 09:06:59;;;;;;;2.80;2.60;;;;;;;11.93;58.44;95782.31;5035340;28;20525;-66
2021/03/11 09:09:37;;;;;;;3.00;2.77;;;;;;;11.96;58.13;95781.81;5019732;28;20202;-65
2021/03/11 09:12:08;;;;;;;2.70;2.50;;;;;;;11.99;57.91;95781.28;5032234;28;20554;-66
2021/03/11 09:14:35;;;;;;;2.63;2.53;;;;;;;12.04;57.93;95791.00;5022515;28;20537;-65
2021/03/11 09:17:13;;;;;;;3.30;2.30;;;;;;;12.20;57.83;95789.19;5046278;28;20200;-66
2021/03/11 09:19:46;;;;;;;3.00;2.77;;;;;;;12.19;57.86;95785.00;5017310;28;20207;-65
2021/03/11 09:22:23;;;;;;;2.60;2.40;;;;;;;12.33;57.54;95775.53;5030087;28;20566;-65
2021/03/11 09:24:58;;;;;;;2.90;2.70;;;;;;;12.37;57.26;95774.75;5040189;28;20171;-65
2021/03/11 09:27:28;;;;;;;2.60;2.40;;;;;;;12.48;56.81;95767.69;5031056;28;20181;-66
2021/03/11 09:29:58;;;;;;;2.80;2.17;;;;;;;12.55;56.72;95772.66;5042677;28;20205;-66
2021/03/11 09:32:28;;;;;;;2.20;2.10;;;;;;;12.46;56.89;95780.28;5002885;28;20619;-65
2021/03/11 09:34:56;;;;;;;2.60;2.40;;;;;;;12.50;56.74;95779.50;5037831;28;20192;-65
2021/03/11 09:37:49;;;;;;;3.80;2.30;;;;;;;12.59;56.30;95792.13;5036008;28;20177;-66
2021/03/11 09:40:23;;;;;;;9.67;2.40;;;;;;;12.44;57.05;95787.63;5030088;28;20190;-66
2021/03/11 09:43:04;;;;;;;4.00;2.77;;;;;;;12.61;56.88;95779.47;5047510;28;20174;-66
2021/03/11 09:45:40;;;;;;;2.37;2.10;;;;;;;12.79;56.27;95773.69;5042672;28;20187;-66
2021/03/11 09:48:12;;;;;;;2.80;2.10;;;;;;;12.76;56.35;95769.75;5011221;28;20183;-67
2021/03/11 09:50:41;;;;;;;2.60;2.23;;;;;;;12.97;56.15;95764.47;5022455;28;20267;-66
2021/03/11 09:53:06;;;;;;;2.70;2.00;;;;;;;13.01;55.85;95765.50;5050250;28;20194;-65
2021/03/11 09:55:32;;;;;;;2.23;2.00;;;;;;;13.02;56.04;95772.34;5033125;28;20177;-66
2021/03/11 09:57:58;;;;;;;2.30;2.10;;;;;;;13.08;56.19;95769.44;5045224;28;20230;-66
2021/03/11 10:00:23;;;;;;;2.30;2.20;;;;;;;13.03;56.23;95766.03;5039778;28;20770;-65
2021/03/11 10:02:52;;;;;;;2.50;2.30;;;;;;;12.93;56.74;95770.25;5030341;28;20171;-66
2021/03/11 10:05:18;;;;;;;6.00;2.20;;;;;;;12.87;57.11;95758.16;5015031;28;20178;-66
2021/03/11 10:07:55;;;;;;;2.40;2.20;;;;;;;12.68;57.90;95744.00;5047848;28;20167;-66
2021/03/11 10:10:20;;;;;;;2.33;2.13;;;;;;;12.68;58.16;95753.72;5023160;28;20193;-66
2021/03/11 10:12:46;;;;;;;2.43;2.23;;;;;;;12.67;58.51;95749.50;5016421;28;20203;-65
2021/03/11 10:15:14;;;;;;;2.37;2.27;;;;;;;12.77;58.60;95760.00;5040103;28;20602;-64
2021/03/11 10:17:41;;;;;;;2.23;2.13;;;;;;;12.93;58.59;95740.53;5023208;28;20258;-66
2021/03/11 10:20:25;;;;;;;2.37;2.17;;;;;;;13.19;58.19;95755.22;5017587;28;20210;-65
2021/03/11 10:22:52;;;;;;;2.33;2.23;;;;;;;13.40;57.74;95748.03;5042813;28;20170;-65
2021/03/11 10:25:18;;;;;;;1.90;1.70;;;;;;;13.51;57.46;95739.06;5047809;28;20192;-66
2021/03/11 10:27:46;;;;;;;2.00;1.90;;;;;;;13.49;57.51;95737.72;5014875;28;20194;-66
2021/03/11 10:30:27;;;;;;;2.17;1.80;;;;;;;13.49;57.70;95743.78;5015894;28;20199;-64
2021/03/11 10:32:58;;;;;;;4.37;1.83;;;;;;;13.52;57.92;95735.38;5014904;28;20205;-66
2021/03/11 10:35:29;;;;;;;2.13;2.00;;;;;;;13.52;57.81;95732.72;5016688;28;20278;-65
2021/03/11 10:37:55;;;;;;;2.10;1.90;;;;;;;13.64;57.83;95729.78;5045078;28;20199;-65
2021/03/11 10:40:24;;;;;;;2.10;1.80;;;;;;;13.77;57.47;95734.44;5029233;28;20204;-66
2021/03/11 10:42:54;;;;;;;2.10;2.00;;;;;;;14.02;56.77;95723.75;5049807;28;20223;-66
2021/03/11 10:45:26;;;;;;;2.00;1.80;;;;;;;14.14;56.72;95724.19;5022685;28;20210;-66
2021/03/11 10:48:01;;;;;;;1.90;1.80;;;;;;;14.43;56.05;95718.97;5048523;28;20180;-66
2021/03/11 10:50:30;;;;;;;6.43;2.10;;;;;;;14.59;55.65;95724.94;5049545;28;20198;-66
2021/03/11 10:52:56;;;;;;;2.00;1.70;;;;;;;14.42;56.30;95714.00;5047080;28;20197;-66
2021/03/11 10:55:34;;;;;;;5.90;5.00;;;;;;;14.48;56.27;95707.63;5025209;28;20183;-66
2021/03/11 10:58:03;;;;;;;1.70;1.70;;;;;;;14.48;56.42;95724.22;5024449;28;20222;-66
2021/03/11 11:00:36;;;;;;;4.50;1.90;;;;;;;14.20;57.46;95732.84;5014420;28;20218;-66
2021/03/11 11:03:03;;;;;;;2.00;1.90;;;;;;;14.21;57.62;95723.88;5018620;28;20175;-66
2021/03/11 11:05:31;;;;;;;1.93;1.83;;;;;;;13.96;58.70;95721.41;5039448;28;20214;-66
2021/03/11 11:07:58;;;;;;;2.17;2.07;;;;;;;13.92;59.41;95744.13;5024689;28;20182;-66
2021/03/11 11:10:31;;;;;;;6.47;2.50;;;;;;;13.68;60.11;95742.13;5025374;28;20214;-66
2021/03/11 11:12:56;;;;;;;2.30;2.20;;;;;;;13.57;60.71;95747.72;5046852;28;20194;-67
2021/03/11 11:15:23;;;;;;;2.53;2.33;;;;;;;13.47;64.41;95771.44;5021859;28;20166;-66
2021/03/11 11:17:48;;;;;;;2.57;2.20;;;;;;;13.42;66.70;95774.09;5034305;28;20527;-66
2021/03/11 11:20:16;;;;;;;4.83;2.20;;;;;;;13.08;68.80;95764.19;5033051;28;20421;-66
2021/03/11 11:22:43;;;;;;;5.77;2.40;;;;;;;12.81;70.15;95772.38;5015667;28;20178;-66
2021/03/11 11:25:09;;;;;;;2.57;2.37;;;;;;;12.64;71.92;95771.09;5045672;28;20215;-66
2021/03/11 11:27:35;;;;;;;2.20;2.10;;;;;;;12.57;72.75;95770.56;5028947;28;20177;-66
2021/03/11 11:30:03;;;;;;;2.87;2.50;;;;;;;12.36;73.42;95775.03;5039331;28;20199;-66
2021/03/11 11:32:28;;;;;;;2.40;2.30;;;;;;;12.29;73.98;95780.53;5014243;28;20199;-66
2021/03/11 11:34:54;;;;;;;2.83;2.60;;;;;;;12.17;74.75;95776.56;5014275;28;20547;-66
2021/03/11 11:37:20;;;;;;;2.10;2.00;;;;;;;12.19;75.18;95779.75;5039872;28;20185;-66
2021/03/11 11:39:46;;;;;;;2.10;2.03;;;;;;;12.13;75.98;95768.44;5051873;28;20205;-66
2021/03/11 11:42:12;;;;;;;2.40;2.30;;;;;;;12.08;76.67;95774.47;5032727;28;20166;-65
2021/03/11 11:44:39;;;;;;;2.30;2.20;;;;;;;11.94;76.52;95759.47;5038436;28;20550;-66
2021/03/11 11:47:05;;;;;;;2.80;2.60;;;;;;;11.98;77.21;95752.66;5017964;28;20222;-66
2021/03/11 11:49:31;;;;;;;2.60;2.50;;;;;;;11.87;78.69;95751.81;5040390;28;20745;-66